sensor_id;sensor_type;location;lat;lon;timestamp;P1;durP1;ratioP1;P2;durP2;ratioP2
19566;SDS011;9930;49.240;8.548;2023-08-06T00:01:04;5.95;;;4.85;;
19566;SDS011;9930;49.240;8.548;2023-08-06T00:03:30;5.13;;;4.30;;
19566;SDS011;9930;49.240;8.548;2023-08-06T00:05:55;3.53;;;3.20;;
19566;SDS011;9930;49.240;8.548;2023-08-06T00:08:21;2.83;;;2.60;;
19566;SDS011;9930;49.240;8.548;2023-08-06T00:10:53;2.92;;;2.55;;
19566;SDS011;9930;49.240;8.548;2023-08-06T00:13:22;4.30;;;2.28;;
19566;SDS011;9930;49.240;8.548;2023-08-06T00:15:49;2.70;;;2.50;;
19566;SDS011;9930;49.240;8.548;2023-08-06T00:18:18;2.70;;;2.50;;
19566;SDS011;9930;49.240;8.548;2023-08-06T00:20:46;2.35;;;2.15;;
19566;SDS011;9930;49.240;8.548;2023-08-06T00:23:14;2.20;;;2.00;;
19566;SDS011;9930;49.240;8.548;2023-08-06T00:25:39;2.30;;;2.20;;
19566;SDS011;9930;49.240;8.548;2023-08-06T00:28:05;2.60;;;2.40;;
19566;SDS011;9930;49.240;8.548;2023-08-06T00:30:31;2.30;;;2.10;;
19566;SDS011;9930;49.240;8.548;2023-08-06T00:32:57;3.08;;;2.22;;
19566;SDS011;9930;49.240;8.548;2023-08-06T00:35:23;2.17;;;1.98;;
19566;SDS011;9930;49.240;8.548;2023-08-06T00:37:49;2.47;;;2.00;;
19566;SDS011;9930;49.240;8.548;2023-08-06T00:40:14;2.50;;;2.30;;
19566;SDS011;9930;49.240;8.548;2023-08-06T00:42:40;2.50;;;2.30;;
19566;SDS011;9930;49.240;8.548;2023-08-06T00:45:09;2.70;;;2.50;;
19566;SDS011;9930;49.240;8.548;2023-08-06T00:47:35;2.10;;;1.90;;
19566;SDS011;9930;49.240;8.548;2023-08-06T00:50:04;2.67;;;2.13;;
19566;SDS011;9930;49.240;8.548;2023-08-06T00:52:33;2.05;;;1.95;;
19566;SDS011;9930;49.240;8.548;2023-08-06T00:54:59;2.47;;;2.28;;
19566;SDS011;9930;49.240;8.548;2023-08-06T00:57:28;2.20;;;2.00;;
19566;SDS011;9930;49.240;8.548;2023-08-06T00:59:54;2.38;;;2.20;;
19566;SDS011;9930;49.240;8.548;2023-08-06T01:02:20;2.20;;;2.00;;
19566;SDS011;9930;49.240;8.548;2023-08-06T01:04:47;1.90;;;1.80;;
19566;SDS011;9930;49.240;8.548;2023-08-06T01:09:45;3.33;;;2.55;;
19566;SDS011;9930;49.240;8.548;2023-08-06T01:15:43;1.90;;;1.80;;
19566;SDS011;9930;49.240;8.548;2023-08-06T01:18:23;2.20;;;2.10;;
19566;SDS011;9930;49.240;8.548;2023-08-06T01:20:52;2.03;;;1.90;;
19566;SDS011;9930;49.240;8.548;2023-08-06T01:23:19;2.20;;;2.10;;
19566;SDS011;9930;49.240;8.548;2023-08-06T01:25:48;2.33;;;2.05;;
19566;SDS011;9930;49.240;8.548;2023-08-06T01:31:21;2.05;;;1.90;;
19566;SDS011;9930;49.240;8.548;2023-08-06T01:33:56;2.20;;;2.00;;
19566;SDS011;9930;49.240;8.548;2023-08-06T01:36:28;1.88;;;1.77;;
19566;SDS011;9930;49.240;8.548;2023-08-06T01:38:55;2.63;;;1.90;;
19566;SDS011;9930;49.240;8.548;2023-08-06T01:41:24;1.70;;;1.60;;
19566;SDS011;9930;49.240;8.548;2023-08-06T01:43:52;2.28;;;1.73;;
19566;SDS011;9930;49.240;8.548;2023-08-06T01:46:19;2.08;;;1.73;;
19566;SDS011;9930;49.240;8.548;2023-08-06T01:48:47;1.90;;;1.80;;
19566;SDS011;9930;49.240;8.548;2023-08-06T01:51:15;2.28;;;2.08;;
19566;SDS011;9930;49.240;8.548;2023-08-06T01:53:41;2.00;;;1.90;;
19566;SDS011;9930;49.240;8.548;2023-08-06T01:56:06;2.65;;;2.15;;
19566;SDS011;9930;49.240;8.548;2023-08-06T01:58:32;1.83;;;1.73;;
19566;SDS011;9930;49.240;8.548;2023-08-06T02:01:01;1.98;;;1.88;;
19566;SDS011;9930;49.240;8.548;2023-08-06T02:03:27;2.08;;;1.88;;
19566;SDS011;9930;49.240;8.548;2023-08-06T02:05:53;1.90;;;1.80;;
19566;SDS011;9930;49.240;8.548;2023-08-06T02:08:21;2.40;;;2.20;;
19566;SDS011;9930;49.240;8.548;2023-08-06T02:10:51;2.05;;;1.85;;
19566;SDS011;9930;49.240;8.548;2023-08-06T02:13:23;1.80;;;1.60;;
19566;SDS011;9930;49.240;8.548;2023-08-06T02:15:49;1.90;;;1.80;;
19566;SDS011;9930;49.240;8.548;2023-08-06T02:18:15;1.85;;;1.75;;
19566;SDS011;9930;49.240;8.548;2023-08-06T02:20:41;2.33;;;2.00;;
19566;SDS011;9930;49.240;8.548;2023-08-06T02:23:07;2.45;;;2.25;;
19566;SDS011;9930;49.240;8.548;2023-08-06T02:25:34;3.30;;;2.20;;
19566;SDS011;9930;49.240;8.548;2023-08-06T02:28:00;1.83;;;1.73;;
19566;SDS011;9930;49.240;8.548;2023-08-06T02:30:26;2.20;;;2.00;;
19566;SDS011;9930;49.240;8.548;2023-08-06T02:32:54;2.13;;;1.85;;
19566;SDS011;9930;49.240;8.548;2023-08-06T02:35:19;1.92;;;1.73;;
19566;SDS011;9930;49.240;8.548;2023-08-06T02:37:45;2.30;;;1.88;;
19566;SDS011;9930;49.240;8.548;2023-08-06T02:40:11;1.80;;;1.70;;
19566;SDS011;9930;49.240;8.548;2023-08-06T02:42:39;1.83;;;1.60;;
19566;SDS011;9930;49.240;8.548;2023-08-06T02:45:07;2.00;;;1.80;;
19566;SDS011;9930;49.240;8.548;2023-08-06T02:47:33;2.80;;;1.80;;
19566;SDS011;9930;49.240;8.548;2023-08-06T02:50:04;2.10;;;1.90;;
19566;SDS011;9930;49.240;8.548;2023-08-06T02:52:30;1.50;;;1.40;;
19566;SDS011;9930;49.240;8.548;2023-08-06T02:54:56;2.45;;;1.83;;
19566;SDS011;9930;49.240;8.548;2023-08-06T02:57:25;2.08;;;1.58;;
19566;SDS011;9930;49.240;8.548;2023-08-06T02:59:51;1.73;;;1.63;;
19566;SDS011;9930;49.240;8.548;2023-08-06T03:02:17;1.70;;;1.60;;
19566;SDS011;9930;49.240;8.548;2023-08-06T03:04:45;1.80;;;1.70;;
19566;SDS011;9930;49.240;8.548;2023-08-06T03:07:11;2.42;;;1.73;;
19566;SDS011;9930;49.240;8.548;2023-08-06T03:09:37;1.70;;;1.60;;
19566;SDS011;9930;49.240;8.548;2023-08-06T03:12:03;2.10;;;1.90;;
19566;SDS011;9930;49.240;8.548;2023-08-06T03:14:31;1.92;;;1.77;;
19566;SDS011;9930;49.240;8.548;2023-08-06T03:16:56;1.95;;;1.75;;
19566;SDS011;9930;49.240;8.548;2023-08-06T03:19:23;2.55;;;1.88;;
19566;SDS011;9930;49.240;8.548;2023-08-06T03:21:49;1.73;;;1.63;;
19566;SDS011;9930;49.240;8.548;2023-08-06T03:24:15;3.28;;;1.60;;
19566;SDS011;9930;49.240;8.548;2023-08-06T03:26:45;2.35;;;1.85;;
19566;SDS011;9930;49.240;8.548;2023-08-06T03:29:10;2.85;;;1.80;;
19566;SDS011;9930;49.240;8.548;2023-08-06T03:31:41;2.10;;;1.55;;
19566;SDS011;9930;49.240;8.548;2023-08-06T03:34:06;2.15;;;1.73;;
19566;SDS011;9930;49.240;8.548;2023-08-06T03:36:36;1.75;;;1.65;;
19566;SDS011;9930;49.240;8.548;2023-08-06T03:39:02;2.30;;;1.60;;
19566;SDS011;9930;49.240;8.548;2023-08-06T03:41:28;2.50;;;1.88;;
19566;SDS011;9930;49.240;8.548;2023-08-06T03:43:58;1.88;;;1.58;;
19566;SDS011;9930;49.240;8.548;2023-08-06T03:46:28;2.08;;;1.52;;
19566;SDS011;9930;49.240;8.548;2023-08-06T03:49:01;1.45;;;1.30;;
19566;SDS011;9930;49.240;8.548;2023-08-06T03:51:27;1.98;;;1.40;;
19566;SDS011;9930;49.240;8.548;2023-08-06T03:53:53;1.83;;;1.20;;
19566;SDS011;9930;49.240;8.548;2023-08-06T03:56:19;1.30;;;1.10;;
19566;SDS011;9930;49.240;8.548;2023-08-06T03:58:45;1.30;;;1.20;;
19566;SDS011;9930;49.240;8.548;2023-08-06T04:01:18;1.63;;;1.30;;
19566;SDS011;9930;49.240;8.548;2023-08-06T04:03:44;1.42;;;1.23;;
19566;SDS011;9930;49.240;8.548;2023-08-06T04:06:12;1.30;;;1.05;;
19566;SDS011;9930;49.240;8.548;2023-08-06T04:08:38;1.92;;;1.20;;
19566;SDS011;9930;49.240;8.548;2023-08-06T04:11:03;3.80;;;1.33;;
19566;SDS011;9930;49.240;8.548;2023-08-06T04:13:31;3.28;;;1.30;;
19566;SDS011;9930;49.240;8.548;2023-08-06T04:16:05;2.05;;;1.15;;
19566;SDS011;9930;49.240;8.548;2023-08-06T04:18:31;1.60;;;1.20;;
19566;SDS011;9930;49.240;8.548;2023-08-06T04:20:57;1.75;;;1.30;;
19566;SDS011;9930;49.240;8.548;2023-08-06T04:23:26;1.83;;;1.30;;
19566;SDS011;9930;49.240;8.548;2023-08-06T04:25:57;3.25;;;1.33;;
19566;SDS011;9930;49.240;8.548;2023-08-06T04:28:25;2.03;;;1.25;;
19566;SDS011;9930;49.240;8.548;2023-08-06T04:30:54;1.63;;;1.10;;
19566;SDS011;9930;49.240;8.548;2023-08-06T04:33:20;1.98;;;1.17;;
19566;SDS011;9930;49.240;8.548;2023-08-06T04:35:45;1.80;;;1.25;;
19566;SDS011;9930;49.240;8.548;2023-08-06T04:38:20;2.42;;;1.13;;
19566;SDS011;9930;49.240;8.548;2023-08-06T04:40:51;1.50;;;1.10;;
19566;SDS011;9930;49.240;8.548;2023-08-06T04:43:21;2.20;;;1.20;;
19566;SDS011;9930;49.240;8.548;2023-08-06T04:45:49;2.17;;;1.20;;
19566;SDS011;9930;49.240;8.548;2023-08-06T04:48:16;1.23;;;1.10;;
19566;SDS011;9930;49.240;8.548;2023-08-06T04:50:43;1.80;;;1.05;;
19566;SDS011;9930;49.240;8.548;2023-08-06T04:53:14;1.73;;;1.20;;
19566;SDS011;9930;49.240;8.548;2023-08-06T04:55:40;2.58;;;1.13;;
19566;SDS011;9930;49.240;8.548;2023-08-06T04:58:06;1.65;;;1.00;;
19566;SDS011;9930;49.240;8.548;2023-08-06T05:00:34;1.17;;;0.90;;
19566;SDS011;9930;49.240;8.548;2023-08-06T05:03:03;2.28;;;1.40;;
19566;SDS011;9930;49.240;8.548;2023-08-06T05:05:32;1.92;;;1.10;;
19566;SDS011;9930;49.240;8.548;2023-08-06T05:08:00;2.05;;;1.20;;
19566;SDS011;9930;49.240;8.548;2023-08-06T05:10:28;2.33;;;1.20;;
19566;SDS011;9930;49.240;8.548;2023-08-06T05:12:56;2.90;;;1.30;;
19566;SDS011;9930;49.240;8.548;2023-08-06T05:15:22;1.75;;;1.17;;
19566;SDS011;9930;49.240;8.548;2023-08-06T05:17:50;2.40;;;1.20;;
19566;SDS011;9930;49.240;8.548;2023-08-06T05:20:20;2.30;;;1.17;;
19566;SDS011;9930;49.240;8.548;2023-08-06T05:22:48;3.17;;;1.40;;
19566;SDS011;9930;49.240;8.548;2023-08-06T05:25:14;1.30;;;1.10;;
19566;SDS011;9930;49.240;8.548;2023-08-06T05:27:40;1.50;;;1.08;;
19566;SDS011;9930;49.240;8.548;2023-08-06T05:30:06;1.85;;;1.00;;
19566;SDS011;9930;49.240;8.548;2023-08-06T05:32:35;2.53;;;1.15;;
19566;SDS011;9930;49.240;8.548;2023-08-06T05:35:03;1.50;;;0.93;;
19566;SDS011;9930;49.240;8.548;2023-08-06T05:37:31;1.45;;;1.10;;
19566;SDS011;9930;49.240;8.548;2023-08-06T05:39:57;1.63;;;1.10;;
19566;SDS011;9930;49.240;8.548;2023-08-06T05:42:23;1.95;;;1.00;;
19566;SDS011;9930;49.240;8.548;2023-08-06T05:44:49;1.70;;;1.50;;
19566;SDS011;9930;49.240;8.548;2023-08-06T05:47:18;1.75;;;1.30;;
19566;SDS011;9930;49.240;8.548;2023-08-06T05:49:44;4.25;;;3.55;;
19566;SDS011;9930;49.240;8.548;2023-08-06T05:52:10;3.17;;;2.72;;
19566;SDS011;9930;49.240;8.548;2023-08-06T05:54:38;4.22;;;3.70;;
19566;SDS011;9930;49.240;8.548;2023-08-06T05:57:09;5.90;;;5.30;;
19566;SDS011;9930;49.240;8.548;2023-08-06T05:59:34;6.03;;;5.40;;
19566;SDS011;9930;49.240;8.548;2023-08-06T06:02:00;6.97;;;6.25;;
19566;SDS011;9930;49.240;8.548;2023-08-06T06:04:26;3.63;;;3.15;;
19566;SDS011;9930;49.240;8.548;2023-08-06T06:06:56;3.50;;;3.20;;
19566;SDS011;9930;49.240;8.548;2023-08-06T06:09:22;6.28;;;5.78;;
19566;SDS011;9930;49.240;8.548;2023-08-06T06:11:53;2.95;;;2.50;;
19566;SDS011;9930;49.240;8.548;2023-08-06T06:14:19;1.92;;;1.83;;
19566;SDS011;9930;49.240;8.548;2023-08-06T06:16:47;1.60;;;1.50;;
19566;SDS011;9930;49.240;8.548;2023-08-06T06:19:13;1.40;;;1.30;;
19566;SDS011;9930;49.240;8.548;2023-08-06T06:21:39;1.80;;;0.98;;
19566;SDS011;9930;49.240;8.548;2023-08-06T06:24:07;1.15;;;0.90;;
19566;SDS011;9930;49.240;8.548;2023-08-06T06:26:33;0.73;;;0.70;;
19566;SDS011;9930;49.240;8.548;2023-08-06T06:28:59;1.23;;;0.90;;
19566;SDS011;9930;49.240;8.548;2023-08-06T06:31:24;2.47;;;1.10;;
19566;SDS011;9930;49.240;8.548;2023-08-06T06:33:51;1.80;;;0.70;;
19566;SDS011;9930;49.240;8.548;2023-08-06T06:36:19;0.70;;;0.70;;
19566;SDS011;9930;49.240;8.548;2023-08-06T06:38:48;0.63;;;0.63;;
19566;SDS011;9930;49.240;8.548;2023-08-06T06:41:16;1.27;;;0.75;;
19566;SDS011;9930;49.240;8.548;2023-08-06T06:43:44;1.38;;;0.98;;
19566;SDS011;9930;49.240;8.548;2023-08-06T06:46:15;1.00;;;0.60;;
19566;SDS011;9930;49.240;8.548;2023-08-06T06:48:43;1.58;;;0.70;;
19566;SDS011;9930;49.240;8.548;2023-08-06T06:51:11;1.17;;;0.73;;
19566;SDS011;9930;49.240;8.548;2023-08-06T06:53:37;1.30;;;0.90;;
19566;SDS011;9930;49.240;8.548;2023-08-06T06:56:03;0.60;;;0.60;;
19566;SDS011;9930;49.240;8.548;2023-08-06T06:58:34;0.60;;;0.60;;
19566;SDS011;9930;49.240;8.548;2023-08-06T07:01:05;0.52;;;0.52;;
19566;SDS011;9930;49.240;8.548;2023-08-06T07:03:36;0.80;;;0.60;;
19566;SDS011;9930;49.240;8.548;2023-08-06T07:06:02;1.48;;;0.70;;
19566;SDS011;9930;49.240;8.548;2023-08-06T07:08:28;1.17;;;0.85;;
19566;SDS011;9930;49.240;8.548;2023-08-06T07:11:04;1.33;;;0.65;;
19566;SDS011;9930;49.240;8.548;2023-08-06T07:13:35;0.70;;;0.70;;
19566;SDS011;9930;49.240;8.548;2023-08-06T07:16:02;0.70;;;0.70;;
19566;SDS011;9930;49.240;8.548;2023-08-06T07:18:30;1.90;;;0.70;;
19566;SDS011;9930;49.240;8.548;2023-08-06T07:20:58;0.52;;;0.52;;
19566;SDS011;9930;49.240;8.548;2023-08-06T07:23:24;0.50;;;0.50;;
19566;SDS011;9930;49.240;8.548;2023-08-06T07:25:51;0.60;;;0.60;;
19566;SDS011;9930;49.240;8.548;2023-08-06T07:28:17;0.77;;;0.63;;
19566;SDS011;9930;49.240;8.548;2023-08-06T07:30:43;0.70;;;0.70;;
19566;SDS011;9930;49.240;8.548;2023-08-06T07:33:14;1.25;;;0.80;;
19566;SDS011;9930;49.240;8.548;2023-08-06T07:35:44;1.45;;;0.60;;
19566;SDS011;9930;49.240;8.548;2023-08-06T07:38:14;0.70;;;0.65;;
19566;SDS011;9930;49.240;8.548;2023-08-06T07:40:40;0.85;;;0.60;;
19566;SDS011;9930;49.240;8.548;2023-08-06T07:43:09;1.08;;;0.80;;
19566;SDS011;9930;49.240;8.548;2023-08-06T07:45:37;0.57;;;0.52;;
19566;SDS011;9930;49.240;8.548;2023-08-06T07:48:03;0.55;;;0.55;;
19566;SDS011;9930;49.240;8.548;2023-08-06T07:50:33;0.52;;;0.52;;
19566;SDS011;9930;49.240;8.548;2023-08-06T07:53:03;0.75;;;0.70;;
19566;SDS011;9930;49.240;8.548;2023-08-06T07:55:28;0.50;;;0.50;;
19566;SDS011;9930;49.240;8.548;2023-08-06T07:57:56;0.70;;;0.70;;
19566;SDS011;9930;49.240;8.548;2023-08-06T08:00:23;0.47;;;0.47;;
19566;SDS011;9930;49.240;8.548;2023-08-06T08:02:50;0.55;;;0.50;;
19566;SDS011;9930;49.240;8.548;2023-08-06T08:05:15;0.70;;;0.60;;
19566;SDS011;9930;49.240;8.548;2023-08-06T08:07:41;0.75;;;0.68;;
19566;SDS011;9930;49.240;8.548;2023-08-06T08:10:07;0.60;;;0.60;;
19566;SDS011;9930;49.240;8.548;2023-08-06T08:12:33;0.50;;;0.50;;
19566;SDS011;9930;49.240;8.548;2023-08-06T08:15:03;0.60;;;0.55;;
19566;SDS011;9930;49.240;8.548;2023-08-06T08:17:32;0.90;;;0.50;;
19566;SDS011;9930;49.240;8.548;2023-08-06T08:19:59;0.63;;;0.63;;
19566;SDS011;9930;49.240;8.548;2023-08-06T08:22:28;0.50;;;0.50;;
19566;SDS011;9930;49.240;8.548;2023-08-06T08:24:53;0.52;;;0.52;;
19566;SDS011;9930;49.240;8.548;2023-08-06T08:27:19;0.70;;;0.70;;
19566;SDS011;9930;49.240;8.548;2023-08-06T08:29:45;0.50;;;0.50;;
19566;SDS011;9930;49.240;8.548;2023-08-06T08:32:11;0.55;;;0.50;;
19566;SDS011;9930;49.240;8.548;2023-08-06T08:34:36;5.20;;;3.25;;
19566;SDS011;9930;49.240;8.548;2023-08-06T08:37:02;2.42;;;1.45;;
19566;SDS011;9930;49.240;8.548;2023-08-06T08:39:28;1.00;;;1.00;;
19566;SDS011;9930;49.240;8.548;2023-08-06T08:41:56;0.60;;;0.60;;
19566;SDS011;9930;49.240;8.548;2023-08-06T08:44:23;1.73;;;1.52;;
19566;SDS011;9930;49.240;8.548;2023-08-06T08:46:54;2.53;;;2.33;;
19566;SDS011;9930;49.240;8.548;2023-08-06T08:49:24;3.22;;;2.97;;
19566;SDS011;9930;49.240;8.548;2023-08-06T08:51:53;3.42;;;3.13;;
19566;SDS011;9930;49.240;8.548;2023-08-06T08:54:22;3.83;;;3.53;;
19566;SDS011;9930;49.240;8.548;2023-08-06T08:56:54;5.03;;;4.72;;
19566;SDS011;9930;49.240;8.548;2023-08-06T08:59:23;3.75;;;3.55;;
19566;SDS011;9930;49.240;8.548;2023-08-06T09:01:50;3.22;;;3.03;;
19566;SDS011;9930;49.240;8.548;2023-08-06T09:04:19;2.15;;;2.05;;
19566;SDS011;9930;49.240;8.548;2023-08-06T09:06:50;2.53;;;2.33;;
19566;SDS011;9930;49.240;8.548;2023-08-06T09:09:21;2.60;;;2.40;;
19566;SDS011;9930;49.240;8.548;2023-08-06T09:11:59;2.70;;;2.50;;
19566;SDS011;9930;49.240;8.548;2023-08-06T09:14:27;1.60;;;1.50;;
19566;SDS011;9930;49.240;8.548;2023-08-06T09:16:54;1.33;;;1.33;;
19566;SDS011;9930;49.240;8.548;2023-08-06T09:19:23;0.80;;;0.80;;
19566;SDS011;9930;49.240;8.548;2023-08-06T09:21:50;0.60;;;0.60;;
19566;SDS011;9930;49.240;8.548;2023-08-06T09:24:23;0.63;;;0.63;;
19566;SDS011;9930;49.240;8.548;2023-08-06T09:26:51;0.60;;;0.60;;
19566;SDS011;9930;49.240;8.548;2023-08-06T09:29:17;0.70;;;0.70;;
19566;SDS011;9930;49.240;8.548;2023-08-06T09:34:20;1.55;;;0.50;;
19566;SDS011;9930;49.240;8.548;2023-08-06T09:36:52;0.60;;;0.60;;
19566;SDS011;9930;49.240;8.548;2023-08-06T09:39:30;0.60;;;0.52;;
19566;SDS011;9930;49.240;8.548;2023-08-06T09:41:59;0.75;;;0.52;;
19566;SDS011;9930;49.240;8.548;2023-08-06T09:44:30;0.60;;;0.60;;
19566;SDS011;9930;49.240;8.548;2023-08-06T09:46:58;0.40;;;0.40;;
19566;SDS011;9930;49.240;8.548;2023-08-06T09:49:40;0.47;;;0.47;;
19566;SDS011;9930;49.240;8.548;2023-08-06T09:52:13;0.50;;;0.50;;
19566;SDS011;9930;49.240;8.548;2023-08-06T09:54:40;0.50;;;0.50;;
19566;SDS011;9930;49.240;8.548;2023-08-06T09:57:11;0.47;;;0.47;;
19566;SDS011;9930;49.240;8.548;2023-08-06T09:59:39;0.60;;;0.60;;
19566;SDS011;9930;49.240;8.548;2023-08-06T10:02:10;0.50;;;0.50;;
19566;SDS011;9930;49.240;8.548;2023-08-06T10:04:39;0.40;;;0.40;;
19566;SDS011;9930;49.240;8.548;2023-08-06T10:07:10;0.47;;;0.47;;
19566;SDS011;9930;49.240;8.548;2023-08-06T10:09:38;0.60;;;0.60;;
19566;SDS011;9930;49.240;8.548;2023-08-06T10:12:04;0.60;;;0.60;;
19566;SDS011;9930;49.240;8.548;2023-08-06T10:14:32;0.40;;;0.40;;
19566;SDS011;9930;49.240;8.548;2023-08-06T10:17:02;0.43;;;0.43;;
19566;SDS011;9930;49.240;8.548;2023-08-06T10:19:33;0.50;;;0.50;;
19566;SDS011;9930;49.240;8.548;2023-08-06T10:22:12;0.50;;;0.50;;
19566;SDS011;9930;49.240;8.548;2023-08-06T10:24:56;0.50;;;0.50;;
19566;SDS011;9930;49.240;8.548;2023-08-06T10:27:35;0.40;;;0.40;;
19566;SDS011;9930;49.240;8.548;2023-08-06T10:32:52;0.50;;;0.50;;
19566;SDS011;9930;49.240;8.548;2023-08-06T10:38:22;0.60;;;0.60;;
19566;SDS011;9930;49.240;8.548;2023-08-06T10:43:28;0.43;;;0.43;;
19566;SDS011;9930;49.240;8.548;2023-08-06T10:46:08;0.55;;;0.55;;
19566;SDS011;9930;49.240;8.548;2023-08-06T10:51:09;0.77;;;0.77;;
19566;SDS011;9930;49.240;8.548;2023-08-06T10:53:38;1.15;;;1.05;;
19566;SDS011;9930;49.240;8.548;2023-08-06T10:56:12;0.70;;;0.70;;
19566;SDS011;9930;49.240;8.548;2023-08-06T10:58:42;0.80;;;0.80;;
19566;SDS011;9930;49.240;8.548;2023-08-06T11:01:11;0.80;;;0.80;;
19566;SDS011;9930;49.240;8.548;2023-08-06T11:03:38;0.98;;;0.90;;
19566;SDS011;9930;49.240;8.548;2023-08-06T11:06:07;0.73;;;0.73;;
19566;SDS011;9930;49.240;8.548;2023-08-06T11:08:34;0.80;;;0.80;;
19566;SDS011;9930;49.240;8.548;2023-08-06T11:11:09;0.90;;;0.80;;
19566;SDS011;9930;49.240;8.548;2023-08-06T11:13:42;0.82;;;0.82;;
19566;SDS011;9930;49.240;8.548;2023-08-06T11:16:19;0.85;;;0.85;;
19566;SDS011;9930;49.240;8.548;2023-08-06T11:18:51;1.00;;;1.00;;
19566;SDS011;9930;49.240;8.548;2023-08-06T11:21:19;1.10;;;1.00;;
19566;SDS011;9930;49.240;8.548;2023-08-06T11:23:46;0.88;;;0.88;;
19566;SDS011;9930;49.240;8.548;2023-08-06T11:26:12;0.80;;;0.80;;
19566;SDS011;9930;49.240;8.548;2023-08-06T11:28:43;1.27;;;0.90;;
19566;SDS011;9930;49.240;8.548;2023-08-06T11:31:18;1.30;;;1.20;;
19566;SDS011;9930;49.240;8.548;2023-08-06T11:33:51;1.00;;;1.00;;
19566;SDS011;9930;49.240;8.548;2023-08-06T11:36:31;0.82;;;0.82;;
19566;SDS011;9930;49.240;8.548;2023-08-06T11:39:07;1.20;;;1.10;;
19566;SDS011;9930;49.240;8.548;2023-08-06T11:41:35;1.50;;;1.40;;
19566;SDS011;9930;49.240;8.548;2023-08-06T11:44:03;1.50;;;1.40;;
19566;SDS011;9930;49.240;8.548;2023-08-06T11:46:29;1.40;;;1.30;;
19566;SDS011;9930;49.240;8.548;2023-08-06T11:49:16;1.48;;;1.38;;
19566;SDS011;9930;49.240;8.548;2023-08-06T11:51:44;1.95;;;1.30;;
19566;SDS011;9930;49.240;8.548;2023-08-06T11:54:10;1.20;;;1.10;;
19566;SDS011;9930;49.240;8.548;2023-08-06T11:56:36;1.00;;;1.00;;
19566;SDS011;9930;49.240;8.548;2023-08-06T11:59:01;1.48;;;1.38;;
19566;SDS011;9930;49.240;8.548;2023-08-06T12:01:27;1.30;;;1.20;;
19566;SDS011;9930;49.240;8.548;2023-08-06T12:03:58;1.45;;;1.35;;
19566;SDS011;9930;49.240;8.548;2023-08-06T12:06:27;1.50;;;1.40;;
19566;SDS011;9930;49.240;8.548;2023-08-06T12:08:53;2.38;;;1.50;;
19566;SDS011;9930;49.240;8.548;2023-08-06T12:11:23;1.77;;;1.67;;
19566;SDS011;9930;49.240;8.548;2023-08-06T12:13:52;1.80;;;1.70;;
19566;SDS011;9930;49.240;8.548;2023-08-06T12:16:27;1.98;;;1.88;;
19566;SDS011;9930;49.240;8.548;2023-08-06T12:18:55;10.25;;;9.45;;
19566;SDS011;9930;49.240;8.548;2023-08-06T12:21:24;8.50;;;7.90;;
19566;SDS011;9930;49.240;8.548;2023-08-06T12:23:52;4.78;;;4.45;;
19566;SDS011;9930;49.240;8.548;2023-08-06T12:26:19;3.33;;;3.13;;
19566;SDS011;9930;49.240;8.548;2023-08-06T12:28:45;2.53;;;2.33;;
19566;SDS011;9930;49.240;8.548;2023-08-06T12:31:14;1.75;;;1.65;;
19566;SDS011;9930;49.240;8.548;2023-08-06T12:33:40;1.85;;;1.75;;
19566;SDS011;9930;49.240;8.548;2023-08-06T12:36:05;2.00;;;1.90;;
19566;SDS011;9930;49.240;8.548;2023-08-06T12:38:34;2.17;;;1.98;;
19566;SDS011;9930;49.240;8.548;2023-08-06T12:40:59;2.00;;;1.90;;
19566;SDS011;9930;49.240;8.548;2023-08-06T12:43:28;3.90;;;3.60;;
19566;SDS011;9930;49.240;8.548;2023-08-06T12:45:54;3.63;;;3.42;;
19566;SDS011;9930;49.240;8.548;2023-08-06T12:48:22;3.22;;;3.03;;
19566;SDS011;9930;49.240;8.548;2023-08-06T12:50:49;3.00;;;2.80;;
19566;SDS011;9930;49.240;8.548;2023-08-06T12:53:15;3.10;;;2.90;;
19566;SDS011;9930;49.240;8.548;2023-08-06T12:55:46;1.98;;;1.88;;
19566;SDS011;9930;49.240;8.548;2023-08-06T12:58:11;2.10;;;1.80;;
19566;SDS011;9930;49.240;8.548;2023-08-06T13:00:37;1.92;;;1.70;;
19566;SDS011;9930;49.240;8.548;2023-08-06T13:03:05;1.55;;;1.45;;
19566;SDS011;9930;49.240;8.548;2023-08-06T13:05:33;1.30;;;1.15;;
19566;SDS011;9930;49.240;8.548;2023-08-06T13:08:02;1.38;;;1.27;;
19566;SDS011;9930;49.240;8.548;2023-08-06T13:10:27;1.38;;;1.27;;
19566;SDS011;9930;49.240;8.548;2023-08-06T13:12:54;1.30;;;1.20;;
19566;SDS011;9930;49.240;8.548;2023-08-06T13:15:20;1.60;;;1.50;;
19566;SDS011;9930;49.240;8.548;2023-08-06T13:17:49;1.50;;;1.40;;
19566;SDS011;9930;49.240;8.548;2023-08-06T13:20:14;1.98;;;1.40;;
19566;SDS011;9930;49.240;8.548;2023-08-06T13:22:40;1.50;;;1.40;;
19566;SDS011;9930;49.240;8.548;2023-08-06T13:25:06;2.03;;;1.20;;
19566;SDS011;9930;49.240;8.548;2023-08-06T13:27:32;1.50;;;1.40;;
19566;SDS011;9930;49.240;8.548;2023-08-06T13:29:57;1.52;;;1.42;;
19566;SDS011;9930;49.240;8.548;2023-08-06T13:32:26;1.70;;;1.10;;
19566;SDS011;9930;49.240;8.548;2023-08-06T13:34:52;1.45;;;1.20;;
19566;SDS011;9930;49.240;8.548;2023-08-06T13:37:18;2.15;;;1.40;;
19566;SDS011;9930;49.240;8.548;2023-08-06T13:39:44;1.60;;;1.50;;
19566;SDS011;9930;49.240;8.548;2023-08-06T13:42:09;1.55;;;1.30;;
19566;SDS011;9930;49.240;8.548;2023-08-06T13:44:37;1.40;;;1.30;;
19566;SDS011;9930;49.240;8.548;2023-08-06T13:47:05;1.17;;;1.15;;
19566;SDS011;9930;49.240;8.548;2023-08-06T13:49:33;0.90;;;0.90;;
19566;SDS011;9930;49.240;8.548;2023-08-06T13:52:01;1.17;;;1.17;;
19566;SDS011;9930;49.240;8.548;2023-08-06T13:54:29;1.00;;;1.00;;
19566;SDS011;9930;49.240;8.548;2023-08-06T13:56:57;1.00;;;1.00;;
19566;SDS011;9930;49.240;8.548;2023-08-06T13:59:26;1.30;;;1.15;;
19566;SDS011;9930;49.240;8.548;2023-08-06T14:01:51;1.05;;;1.05;;
19566;SDS011;9930;49.240;8.548;2023-08-06T14:04:24;0.88;;;0.85;;
19566;SDS011;9930;49.240;8.548;2023-08-06T14:06:55;1.00;;;0.90;;
19566;SDS011;9930;49.240;8.548;2023-08-06T14:09:24;1.13;;;1.02;;
19566;SDS011;9930;49.240;8.548;2023-08-06T14:11:49;0.90;;;0.90;;
19566;SDS011;9930;49.240;8.548;2023-08-06T14:14:18;1.02;;;1.02;;
19566;SDS011;9930;49.240;8.548;2023-08-06T14:16:50;0.98;;;0.90;;
19566;SDS011;9930;49.240;8.548;2023-08-06T14:19:17;0.98;;;0.85;;
19566;SDS011;9930;49.240;8.548;2023-08-06T14:21:42;0.93;;;0.90;;
19566;SDS011;9930;49.240;8.548;2023-08-06T14:24:08;1.77;;;1.20;;
19566;SDS011;9930;49.240;8.548;2023-08-06T14:26:36;1.10;;;1.00;;
19566;SDS011;9930;49.240;8.548;2023-08-06T14:29:04;0.98;;;0.90;;
19566;SDS011;9930;49.240;8.548;2023-08-06T14:31:32;0.90;;;0.85;;
19566;SDS011;9930;49.240;8.548;2023-08-06T14:34:00;0.98;;;0.98;;
19566;SDS011;9930;49.240;8.548;2023-08-06T14:36:31;0.80;;;0.80;;
19566;SDS011;9930;49.240;8.548;2023-08-06T14:38:57;1.10;;;1.00;;
19566;SDS011;9930;49.240;8.548;2023-08-06T14:41:25;1.00;;;1.00;;
19566;SDS011;9930;49.240;8.548;2023-08-06T14:43:51;0.90;;;0.90;;
19566;SDS011;9930;49.240;8.548;2023-08-06T14:46:20;1.10;;;1.10;;
19566;SDS011;9930;49.240;8.548;2023-08-06T14:48:46;0.93;;;0.93;;
19566;SDS011;9930;49.240;8.548;2023-08-06T14:51:11;1.10;;;1.10;;
19566;SDS011;9930;49.240;8.548;2023-08-06T14:53:40;1.77;;;1.10;;
19566;SDS011;9930;49.240;8.548;2023-08-06T14:56:05;1.00;;;1.00;;
19566;SDS011;9930;49.240;8.548;2023-08-06T14:58:33;1.85;;;1.20;;
19566;SDS011;9930;49.240;8.548;2023-08-06T15:01:01;1.33;;;1.05;;
19566;SDS011;9930;49.240;8.548;2023-08-06T15:03:27;1.20;;;1.10;;
19566;SDS011;9930;49.240;8.548;2023-08-06T15:05:53;2.25;;;1.10;;
19566;SDS011;9930;49.240;8.548;2023-08-06T15:08:19;1.05;;;1.00;;
19566;SDS011;9930;49.240;8.548;2023-08-06T15:10:51;1.15;;;1.10;;
19566;SDS011;9930;49.240;8.548;2023-08-06T15:13:19;1.33;;;1.23;;
19566;SDS011;9930;49.240;8.548;2023-08-06T15:15:49;1.17;;;1.10;;
19566;SDS011;9930;49.240;8.548;2023-08-06T15:18:15;1.52;;;1.25;;
19566;SDS011;9930;49.240;8.548;2023-08-06T15:20:45;1.73;;;1.30;;
19566;SDS011;9930;49.240;8.548;2023-08-06T15:23:11;1.70;;;1.20;;
19566;SDS011;9930;49.240;8.548;2023-08-06T15:25:39;1.23;;;1.13;;
19566;SDS011;9930;49.240;8.548;2023-08-06T15:28:05;1.20;;;1.10;;